sensor_id;sensor_type;location;lat;lon;timestamp;temperature;humidity
78516;SHT31;67815;51.990;5.688;2023-04-01T00:02:00;13.1;75.1
78516;SHT31;67815;51.990;5.688;2023-04-01T00:04:29;13.1;75.0
78516;SHT31;67815;51.990;5.688;2023-04-01T00:10:20;13.1;75.1
78516;SHT31;67815;51.990;5.688;2023-04-01T00:12:49;13.1;74.8
78516;SHT31;67815;51.990;5.688;2023-04-01T00:19:02;13.1;74.9
78516;SHT31;67815;51.990;5.688;2023-04-01T00:24:38;13.1;74.9
78516;SHT31;67815;51.990;5.688;2023-04-01T00:27:10;13.1;74.9
78516;SHT31;67815;51.990;5.688;2023-04-01T00:29:41;13.2;74.9
78516;SHT31;67815;51.990;5.688;2023-04-01T00:32:11;13.2;74.9
78516;SHT31;67815;51.990;5.688;2023-04-01T00:34:41;13.2;74.8
78516;SHT31;67815;51.990;5.688;2023-04-01T00:37:11;13.2;74.8
78516;SHT31;67815;51.990;5.688;2023-04-01T00:39:41;13.2;74.9
78516;SHT31;67815;51.990;5.688;2023-04-01T00:42:11;13.2;74.5
78516;SHT31;67815;51.990;5.688;2023-04-01T00:44:58;13.2;74.6
78516;SHT31;67815;51.990;5.688;2023-04-01T00:47:59;13.2;74.8
78516;SHT31;67815;51.990;5.688;2023-04-01T00:50:32;13.2;74.7
78516;SHT31;67815;51.990;5.688;2023-04-01T00:53:03;13.2;74.7
78516;SHT31;67815;51.990;5.688;2023-04-01T00:55:39;13.2;74.7
78516;SHT31;67815;51.990;5.688;2023-04-01T00:58:14;13.2;74.7
78516;SHT31;67815;51.990;5.688;2023-04-01T01:00:47;13.3;74.5
78516;SHT31;67815;51.990;5.688;2023-04-01T01:03:18;13.3;74.6
78516;SHT31;67815;51.990;5.688;2023-04-01T01:06:22;13.3;74.6
78516;SHT31;67815;51.990;5.688;2023-04-01T01:09:28;13.3;74.4
78516;SHT31;67815;51.990;5.688;2023-04-01T01:12:07;13.2;74.5
78516;SHT31;67815;51.990;5.688;2023-04-01T01:15:00;13.2;74.7
78516;SHT31;67815;51.990;5.688;2023-04-01T01:21:20;13.2;74.9
78516;SHT31;67815;51.990;5.688;2023-04-01T01:24:13;13.2;74.8
78516;SHT31;67815;51.990;5.688;2023-04-01T01:27:54;13.2;74.7
78516;SHT31;67815;51.990;5.688;2023-04-01T01:30:41;13.2;74.9
78516;SHT31;67815;51.990;5.688;2023-04-01T01:33:22;13.2;74.8
78516;SHT31;67815;51.990;5.688;2023-04-01T01:35:58;13.2;74.6
78516;SHT31;67815;51.990;5.688;2023-04-01T01:38:34;13.2;74.7
78516;SHT31;67815;51.990;5.688;2023-04-01T01:41:07;13.2;74.6
78516;SHT31;67815;51.990;5.688;2023-04-01T01:43:40;13.2;74.2
78516;SHT31;67815;51.990;5.688;2023-04-01T01:46:15;13.2;74.3
78516;SHT31;67815;51.990;5.688;2023-04-01T01:48:48;13.2;74.2
78516;SHT31;67815;51.990;5.688;2023-04-01T01:51:20;13.2;74.1
78516;SHT31;67815;51.990;5.688;2023-04-01T01:53:50;13.2;74.1
78516;SHT31;67815;51.990;5.688;2023-04-01T01:56:24;13.2;74.1
78516;SHT31;67815;51.990;5.688;2023-04-01T01:58:58;13.2;74.1
78516;SHT31;67815;51.990;5.688;2023-04-01T02:02:00;13.2;73.9
78516;SHT31;67815;51.990;5.688;2023-04-01T02:04:38;13.2;73.8
78516;SHT31;67815;51.990;5.688;2023-04-01T02:07:13;13.2;73.9
78516;SHT31;67815;51.990;5.688;2023-04-01T02:09:44;13.1;73.1
78516;SHT31;67815;51.990;5.688;2023-04-01T02:15:42;13.1;73.2
78516;SHT31;67815;51.990;5.688;2023-04-01T02:18:16;13.1;73.4
78516;SHT31;67815;51.990;5.688;2023-04-01T02:20:49;13.1;73.6
78516;SHT31;67815;51.990;5.688;2023-04-01T02:26:26;13.0;73.9
78516;SHT31;67815;51.990;5.688;2023-04-01T02:29:00;13.0;74.1
78516;SHT31;67815;51.990;5.688;2023-04-01T02:31:32;13.0;74.2
78516;SHT31;67815;51.990;5.688;2023-04-01T02:34:06;13.0;74.1
78516;SHT31;67815;51.990;5.688;2023-04-01T02:36:40;13.0;74.2
78516;SHT31;67815;51.990;5.688;2023-04-01T02:39:10;13.0;74.3
78516;SHT31;67815;51.990;5.688;2023-04-01T02:41:44;13.0;74.1
78516;SHT31;67815;51.990;5.688;2023-04-01T02:44:15;13.0;74.3
78516;SHT31;67815;51.990;5.688;2023-04-01T02:46:45;13.0;74.2
78516;SHT31;67815;51.990;5.688;2023-04-01T02:49:16;12.9;74.4
78516;SHT31;67815;51.990;5.688;2023-04-01T02:51:46;13.0;74.2
78516;SHT31;67815;51.990;5.688;2023-04-01T02:54:15;13.0;74.1
78516;SHT31;67815;51.990;5.688;2023-04-01T02:56:45;13.0;74.2
78516;SHT31;67815;51.990;5.688;2023-04-01T02:59:14;13.0;74.0
78516;SHT31;67815;51.990;5.688;2023-04-01T03:01:44;13.0;74.2
78516;SHT31;67815;51.990;5.688;2023-04-01T03:04:13;13.0;74.3
78516;SHT31;67815;51.990;5.688;2023-04-01T03:06:43;13.0;73.8
78516;SHT31;67815;51.990;5.688;2023-04-01T03:09:12;13.0;74.0
78516;SHT31;67815;51.990;5.688;2023-04-01T03:12:02;13.0;74.0
78516;SHT31;67815;51.990;5.688;2023-04-01T03:14:31;13.0;73.7
78516;SHT31;67815;51.990;5.688;2023-04-01T03:20:22;13.0;73.5
78516;SHT31;67815;51.990;5.688;2023-04-01T03:22:54;13.0;73.7
78516;SHT31;67815;51.990;5.688;2023-04-01T03:25:25;13.0;73.3
78516;SHT31;67815;51.990;5.688;2023-04-01T03:27:58;13.0;73.5
78516;SHT31;67815;51.990;5.688;2023-04-01T03:30:28;12.9;73.7
78516;SHT31;67815;51.990;5.688;2023-04-01T03:33:00;12.9;73.8
78516;SHT31;67815;51.990;5.688;2023-04-01T03:35:31;12.9;73.6
78516;SHT31;67815;51.990;5.688;2023-04-01T03:38:03;12.9;73.9
78516;SHT31;67815;51.990;5.688;2023-04-01T03:40:32;12.9;73.6
78516;SHT31;67815;51.990;5.688;2023-04-01T03:43:04;12.9;73.5
78516;SHT31;67815;51.990;5.688;2023-04-01T03:45:48;12.9;73.7
78516;SHT31;67815;51.990;5.688;2023-04-01T03:48:20;12.9;73.9
78516;SHT31;67815;51.990;5.688;2023-04-01T03:50:50;12.9;73.9
78516;SHT31;67815;51.990;5.688;2023-04-01T03:57:02;12.8;73.8
78516;SHT31;67815;51.990;5.688;2023-04-01T03:59:32;12.8;73.9
78516;SHT31;67815;51.990;5.688;2023-04-01T04:02:02;12.8;73.6
78516;SHT31;67815;51.990;5.688;2023-04-01T04:04:33;12.8;73.9
78516;SHT31;67815;51.990;5.688;2023-04-01T04:07:04;12.8;74.2
78516;SHT31;67815;51.990;5.688;2023-04-01T04:09:33;12.8;73.8
78516;SHT31;67815;51.990;5.688;2023-04-01T04:15:24;12.8;74.1
78516;SHT31;67815;51.990;5.688;2023-04-01T04:17:53;12.8;74.2
78516;SHT31;67815;51.990;5.688;2023-04-01T04:20:25;12.8;74.4
78516;SHT31;67815;51.990;5.688;2023-04-01T04:22:54;12.7;74.3
78516;SHT31;67815;51.990;5.688;2023-04-01T04:25:24;12.7;74.4
78516;SHT31;67815;51.990;5.688;2023-04-01T04:27:54;12.7;74.4
78516;SHT31;67815;51.990;5.688;2023-04-01T04:30:24;12.7;74.6
78516;SHT31;67815;51.990;5.688;2023-04-01T04:32:53;12.7;74.6
78516;SHT31;67815;51.990;5.688;2023-04-01T04:35:22;12.7;74.9
78516;SHT31;67815;51.990;5.688;2023-04-01T04:37:58;12.6;74.9
78516;SHT31;67815;51.990;5.688;2023-04-01T04:40:27;12.6;74.9
78516;SHT31;67815;51.990;5.688;2023-04-01T04:42:57;12.6;74.9
78516;SHT31;67815;51.990;5.688;2023-04-01T04:45:27;12.6;75.0
78516;SHT31;67815;51.990;5.688;2023-04-01T04:47:58;12.6;75.0
78516;SHT31;67815;51.990;5.688;2023-04-01T04:50:28;12.6;75.3
78516;SHT31;67815;51.990;5.688;2023-04-01T04:52:57;12.6;75.3
78516;SHT31;67815;51.990;5.688;2023-04-01T04:55:27;12.6;75.5
78516;SHT31;67815;51.990;5.688;2023-04-01T04:57:57;12.6;75.4
78516;SHT31;67815;51.990;5.688;2023-04-01T05:00:26;12.6;75.6
78516;SHT31;67815;51.990;5.688;2023-04-01T05:02:56;12.6;75.6
78516;SHT31;67815;51.990;5.688;2023-04-01T05:05:25;12.6;75.6
78516;SHT31;67815;51.990;5.688;2023-04-01T05:07:56;12.6;75.8
78516;SHT31;67815;51.990;5.688;2023-04-01T05:10:26;12.6;75.7
78516;SHT31;67815;51.990;5.688;2023-04-01T05:12:56;12.7;75.5
78516;SHT31;67815;51.990;5.688;2023-04-01T05:15:25;12.7;75.5
78516;SHT31;67815;51.990;5.688;2023-04-01T05:17:55;12.7;75.5
78516;SHT31;67815;51.990;5.688;2023-04-01T05:20:25;12.7;75.5
78516;SHT31;67815;51.990;5.688;2023-04-01T05:22:58;12.7;75.6
78516;SHT31;67815;51.990;5.688;2023-04-01T05:25:28;12.7;75.7
78516;SHT31;67815;51.990;5.688;2023-04-01T05:27:58;12.7;75.8
78516;SHT31;67815;51.990;5.688;2023-04-01T05:30:27;12.7;75.8
78516;SHT31;67815;51.990;5.688;2023-04-01T05:32:57;12.7;75.8
78516;SHT31;67815;51.990;5.688;2023-04-01T05:40:29;12.8;75.8
78516;SHT31;67815;51.990;5.688;2023-04-01T05:43:00;12.8;75.8
78516;SHT31;67815;51.990;5.688;2023-04-01T05:45:29;12.8;75.7
78516;SHT31;67815;51.990;5.688;2023-04-01T05:47:59;12.8;75.8
78516;SHT31;67815;51.990;5.688;2023-04-01T05:50:30;12.8;75.8
78516;SHT31;67815;51.990;5.688;2023-04-01T05:52:59;12.9;75.8
78516;SHT31;67815;51.990;5.688;2023-04-01T05:55:29;12.9;75.8
78516;SHT31;67815;51.990;5.688;2023-04-01T06:01:20;12.9;76.0
78516;SHT31;67815;51.990;5.688;2023-04-01T06:03:50;12.9;75.9
78516;SHT31;67815;51.990;5.688;2023-04-01T06:09:27;12.9;76.0
78516;SHT31;67815;51.990;5.688;2023-04-01T06:13:02;13.0;75.9
78516;SHT31;67815;51.990;5.688;2023-04-01T06:16:02;13.0;75.9
78516;SHT31;67815;51.990;5.688;2023-04-01T06:19:07;13.0;75.8
78516;SHT31;67815;51.990;5.688;2023-04-01T06:22:12;13.1;75.7
78516;SHT31;67815;51.990;5.688;2023-04-01T06:25:09;13.1;75.4
78516;SHT31;67815;51.990;5.688;2023-04-01T06:27:58;13.1;75.4
78516;SHT31;67815;51.990;5.688;2023-04-01T06:30:35;13.1;75.5
78516;SHT31;67815;51.990;5.688;2023-04-01T06:33:32;13.1;75.6
78516;SHT31;67815;51.990;5.688;2023-04-01T06:36:25;13.1;75.7
78516;SHT31;67815;51.990;5.688;2023-04-01T06:39:16;13.1;75.8
78516;SHT31;67815;51.990;5.688;2023-04-01T06:44:10;13.1;75.7
78516;SHT31;67815;51.990;5.688;2023-04-01T06:46:50;13.1;75.7
78516;SHT31;67815;51.990;5.688;2023-04-01T06:52:34;13.1;75.8
78516;SHT31;67815;51.990;5.688;2023-04-01T06:55:21;13.1;75.7
78516;SHT31;67815;51.990;5.688;2023-04-01T06:57:55;13.1;75.8
78516;SHT31;67815;51.990;5.688;2023-04-01T07:00:30;13.1;76.0
78516;SHT31;67815;51.990;5.688;2023-04-01T07:03:08;13.1;76.0
78516;SHT31;67815;51.990;5.688;2023-04-01T07:05:41;13.1;76.1
78516;SHT31;67815;51.990;5.688;2023-04-01T07:08:16;13.1;76.1
78516;SHT31;67815;51.990;5.688;2023-04-01T07:10:52;13.1;76.0
78516;SHT31;67815;51.990;5.688;2023-04-01T07:13:30;13.1;76.0
78516;SHT31;67815;51.990;5.688;2023-04-01T07:16:12;13.1;76.1
78516;SHT31;67815;51.990;5.688;2023-04-01T07:18:47;13.1;76.2
78516;SHT31;67815;51.990;5.688;2023-04-01T07:24:29;13.1;76.2
78516;SHT31;67815;51.990;5.688;2023-04-01T07:30:26;13.1;76.4
78516;SHT31;67815;51.990;5.688;2023-04-01T07:33:06;13.1;76.8
78516;SHT31;67815;51.990;5.688;2023-04-01T07:35:46;13.1;76.3
78516;SHT31;67815;51.990;5.688;2023-04-01T07:38:30;13.1;76.6
78516;SHT31;67815;51.990;5.688;2023-04-01T07:41:07;13.1;76.8
78516;SHT31;67815;51.990;5.688;2023-04-01T07:44:52;13.1;76.6
78516;SHT31;67815;51.990;5.688;2023-04-01T07:47:38;13.1;76.6
78516;SHT31;67815;51.990;5.688;2023-04-01T07:50:18;13.1;76.3
78516;SHT31;67815;51.990;5.688;2023-04-01T07:53:03;13.1;76.0
78516;SHT31;67815;51.990;5.688;2023-04-01T07:55:40;13.1;75.8
78516;SHT31;67815;51.990;5.688;2023-04-01T07:58:17;13.1;76.3
78516;SHT31;67815;51.990;5.688;2023-04-01T08:00:59;13.1;76.8
78516;SHT31;67815;51.990;5.688;2023-04-01T08:03:44;13.1;76.5
78516;SHT31;67815;51.990;5.688;2023-04-01T08:06:27;13.1;76.4
78516;SHT31;67815;51.990;5.688;2023-04-01T08:09:08;13.1;76.7
78516;SHT31;67815;51.990;5.688;2023-04-01T08:12:01;13.1;76.7
78516;SHT31;67815;51.990;5.688;2023-04-01T08:17:46;13.1;76.2
78516;SHT31;67815;51.990;5.688;2023-04-01T08:23:27;13.1;76.9
78516;SHT31;67815;51.990;5.688;2023-04-01T08:26:04;13.1;77.0
78516;SHT31;67815;51.990;5.688;2023-04-01T08:28:40;13.1;76.8
78516;SHT31;67815;51.990;5.688;2023-04-01T08:34:30;13.1;76.9
78516;SHT31;67815;51.990;5.688;2023-04-01T08:37:05;13.2;77.3
78516;SHT31;67815;51.990;5.688;2023-04-01T08:39:39;13.2;77.3
78516;SHT31;67815;51.990;5.688;2023-04-01T08:43:02;13.2;77.2
78516;SHT31;67815;51.990;5.688;2023-04-01T08:45:45;13.2;77.0
78516;SHT31;67815;51.990;5.688;2023-04-01T08:48:44;13.3;76.9
78516;SHT31;67815;51.990;5.688;2023-04-01T08:51:40;13.3;77.2
78516;SHT31;67815;51.990;5.688;2023-04-01T08:54:31;13.3;76.6
78516;SHT31;67815;51.990;5.688;2023-04-01T08:57:13;13.3;76.9
78516;SHT31;67815;51.990;5.688;2023-04-01T08:59:54;13.3;76.8
78516;SHT31;67815;51.990;5.688;2023-04-01T09:02:53;13.3;76.9
78516;SHT31;67815;51.990;5.688;2023-04-01T09:05:38;13.3;76.5
78516;SHT31;67815;51.990;5.688;2023-04-01T09:08:28;13.3;76.5
78516;SHT31;67815;51.990;5.688;2023-04-01T09:11:15;13.3;76.2
78516;SHT31;67815;51.990;5.688;2023-04-01T09:14:09;13.3;76.5
78516;SHT31;67815;51.990;5.688;2023-04-01T09:17:24;13.3;76.5
78516;SHT31;67815;51.990;5.688;2023-04-01T09:20:14;13.3;76.4
78516;SHT31;67815;51.990;5.688;2023-04-01T09:23:06;13.3;76.3
78516;SHT31;67815;51.990;5.688;2023-04-01T09:25:54;13.3;76.4
78516;SHT31;67815;51.990;5.688;2023-04-01T09:28:37;13.3;76.7
78516;SHT31;67815;51.990;5.688;2023-04-01T09:31:26;13.4;77.2
78516;SHT31;67815;51.990;5.688;2023-04-01T09:34:23;13.4;76.5
78516;SHT31;67815;51.990;5.688;2023-04-01T09:37:08;13.4;77.0
78516;SHT31;67815;51.990;5.688;2023-04-01T09:40:08;13.4;77.1
78516;SHT31;67815;51.990;5.688;2023-04-01T09:42:45;13.4;76.6
78516;SHT31;67815;51.990;5.688;2023-04-01T09:45:35;13.5;77.0
78516;SHT31;67815;51.990;5.688;2023-04-01T09:51:39;13.5;77.3
78516;SHT31;67815;51.990;5.688;2023-04-01T09:54:24;13.5;77.3
78516;SHT31;67815;51.990;5.688;2023-04-01T09:57:50;13.6;76.8
78516;SHT31;67815;51.990;5.688;2023-04-01T10:00:52;13.6;77.0
78516;SHT31;67815;51.990;5.688;2023-04-01T10:08:06;13.7;77.0
78516;SHT31;67815;51.990;5.688;2023-04-01T10:11:00;13.7;77.8
78516;SHT31;67815;51.990;5.688;2023-04-01T10:14:13;13.8;77.3
78516;SHT31;67815;51.990;5.688;2023-04-01T10:17:19;13.9;76.0
78516;SHT31;67815;51.990;5.688;2023-04-01T10:21:33;13.9;77.3
78516;SHT31;67815;51.990;5.688;2023-04-01T10:26:51;14.0;76.3
78516;SHT31;67815;51.990;5.688;2023-04-01T10:30:42;14.1;77.1
78516;SHT31;67815;51.990;5.688;2023-04-01T10:34:33;14.2;74.6
78516;SHT31;67815;51.990;5.688;2023-04-01T10:37:27;14.3;76.3
78516;SHT31;67815;51.990;5.688;2023-04-01T10:41:10;14.4;75.5
78516;SHT31;67815;51.990;5.688;2023-04-01T10:49:24;14.6;75.2
78516;SHT31;67815;51.990;5.688;2023-04-01T10:54:17;14.6;73.5
78516;SHT31;67815;51.990;5.688;2023-04-01T10:56:55;14.7;74.3
78516;SHT31;67815;51.990;5.688;2023-04-01T11:00:01;14.7;74.2
78516;SHT31;67815;51.990;5.688;2023-04-01T11:03:35;14.8;74.2
78516;SHT31;67815;51.990;5.688;2023-04-01T11:16:49;15.0;71.3
78516;SHT31;67815;51.990;5.688;2023-04-01T11:19:53;15.0;71.4
78516;SHT31;67815;51.990;5.688;2023-04-01T11:26:04;15.0;71.9
78516;SHT31;67815;51.990;5.688;2023-04-01T11:30:29;15.0;70.0
78516;SHT31;67815;51.990;5.688;2023-04-01T11:33:14;15.0;70.9
78516;SHT31;67815;51.990;5.688;2023-04-01T11:36:03;14.9;71.2
78516;SHT31;67815;51.990;5.688;2023-04-01T11:39:01;14.9;70.8
78516;SHT31;67815;51.990;5.688;2023-04-01T11:41:43;14.8;70.1
78516;SHT31;67815;51.990;5.688;2023-04-01T11:44:19;14.8;70.9
78516;SHT31;67815;51.990;5.688;2023-04-01T11:47:18;14.7;70.8
78516;SHT31;67815;51.990;5.688;2023-04-01T11:50:02;14.7;70.0
78516;SHT31;67815;51.990;5.688;2023-04-01T11:54:58;14.6;71.4
78516;SHT31;67815;51.990;5.688;2023-04-01T11:57:54;14.6;71.6
78516;SHT31;67815;51.990;5.688;2023-04-01T12:00:53;14.5;72.7
78516;SHT31;67815;51.990;5.688;2023-04-01T12:03:41;14.5;72.4
78516;SHT31;67815;51.990;5.688;2023-04-01T12:06:23;14.5;72.1
78516;SHT31;67815;51.990;5.688;2023-04-01T12:09:04;14.4;73.0
78516;SHT31;67815;51.990;5.688;2023-04-01T12:11:48;14.4;73.4
78516;SHT31;67815;51.990;5.688;2023-04-01T12:14:30;14.4;73.2
78516;SHT31;67815;51.990;5.688;2023-04-01T12:17:12;14.4;72.9
78516;SHT31;67815;51.990;5.688;2023-04-01T12:19:53;14.4;73.6
78516;SHT31;67815;51.990;5.688;2023-04-01T12:22:41;14.4;72.7
78516;SHT31;67815;51.990;5.688;2023-04-01T12:25:28;14.3;72.8
78516;SHT31;67815;51.990;5.688;2023-04-01T12:28:06;14.3;73.2
78516;SHT31;67815;51.990;5.688;2023-04-01T12:30:52;14.3;73.4
78516;SHT31;67815;51.990;5.688;2023-04-01T12:34:18;14.3;73.5
78516;SHT31;67815;51.990;5.688;2023-04-01T12:37:09;14.3;73.3
78516;SHT31;67815;51.990;5.688;2023-04-01T12:40:20;14.2;72.3
78516;SHT31;67815;51.990;5.688;2023-04-01T12:43:01;14.2;73.4
78516;SHT31;67815;51.990;5.688;2023-04-01T12:45:33;14.2;74.0
78516;SHT31;67815;51.990;5.688;2023-04-01T12:48:26;14.2;73.8
78516;SHT31;67815;51.990;5.688;2023-04-01T12:51:26;14.2;75.1
78516;SHT31;67815;51.990;5.688;2023-04-01T12:57:44;14.2;74.6
78516;SHT31;67815;51.990;5.688;2023-04-01T13:03:43;14.2;74.4
78516;SHT31;67815;51.990;5.688;2023-04-01T13:06:51;14.3;75.5
78516;SHT31;67815;51.990;5.688;2023-04-01T13:09:36;14.3;75.3
78516;SHT31;67815;51.990;5.688;2023-04-01T13:12:34;14.4;75.1
78516;SHT31;67815;51.990;5.688;2023-04-01T13:15:24;14.4;75.2
78516;SHT31;67815;51.990;5.688;2023-04-01T13:18:05;14.4;74.1
78516;SHT31;67815;51.990;5.688;2023-04-01T13:20:45;14.5;73.6
78516;SHT31;67815;51.990;5.688;2023-04-01T13:23:42;14.5;73.7
78516;SHT31;67815;51.990;5.688;2023-04-01T13:26:20;14.5;73.7
78516;SHT31;67815;51.990;5.688;2023-04-01T13:28:58;14.5;73.6
78516;SHT31;67815;51.990;5.688;2023-04-01T13:31:38;14.5;73.6
78516;SHT31;67815;51.990;5.688;2023-04-01T13:37:47;14.5;74.4
78516;SHT31;67815;51.990;5.688;2023-04-01T13:40:28;14.5;74.3
78516;SHT31;67815;51.990;5.688;2023-04-01T13:43:04;14.5;74.1
78516;SHT31;67815;51.990;5.688;2023-04-01T13:45:53;14.5;73.6
78516;SHT31;67815;51.990;5.688;2023-04-01T13:48:29;14.5;73.7
78516;SHT31;67815;51.990;5.688;2023-04-01T13:51:59;14.5;73.4
78516;SHT31;67815;51.990;5.688;2023-04-01T13:54:51;14.5;72.9
78516;SHT31;67815;51.990;5.688;2023-04-01T13:57:37;14.5;72.7
78516;SHT31;67815;51.990;5.688;2023-04-01T14:00:59;14.5;73.4
78516;SHT31;67815;51.990;5.688;2023-04-01T14:03:43;14.5;73.5
78516;SHT31;67815;51.990;5.688;2023-04-01T14:06:38;14.5;73.9
78516;SHT31;67815;51.990;5.688;2023-04-01T14:10:20;14.5;74.0
78516;SHT31;67815;51.990;5.688;2023-04-01T14:13:01;14.5;73.8
78516;SHT31;67815;51.990;5.688;2023-04-01T14:15:52;14.5;74.2
78516;SHT31;67815;51.990;5.688;2023-04-01T14:18:45;14.5;74.2
78516;SHT31;67815;51.990;5.688;2023-04-01T14:21:31;14.5;74.4
78516;SHT31;67815;51.990;5.688;2023-04-01T14:28:03;14.6;73.7
78516;SHT31;67815;51.990;5.688;2023-04-01T14:31:04;14.6;73.9
78516;SHT31;67815;51.990;5.688;2023-04-01T14:33:49;14.6;73.7
78516;SHT31;67815;51.990;5.688;2023-04-01T14:37:48;14.6;73.5
78516;SHT31;67815;51.990;5.688;2023-04-01T14:43:48;14.7;73.1
78516;SHT31;67815;51.990;5.688;2023-04-01T14:46:38;14.7;73.5
78516;SHT31;67815;51.990;5.688;2023-04-01T14:49:24;14.7;72.8
78516;SHT31;67815;51.990;5.688;2023-04-01T14:52:10;14.7;73.3
78516;SHT31;67815;51.990;5.688;2023-04-01T14:54:44;14.7;73.4
78516;SHT31;67815;51.990;5.688;2023-04-01T14:57:16;14.8;73.5
78516;SHT31;67815;51.990;5.688;2023-04-01T14:59:58;14.8;73.5
78516;SHT31;67815;51.990;5.688;2023-04-01T15:02:54;14.8;73.2
78516;SHT31;67815;51.990;5.688;2023-04-01T15:05:36;14.8;72.8
78516;SHT31;67815;51.990;5.688;2023-04-01T15:08:16;14.8;72.8
78516;SHT31;67815;51.990;5.688;2023-04-01T15:11:19;14.8;73.1
78516;SHT31;67815;51.990;5.688;2023-04-01T15:14:26;14.8;73.1
78516;SHT31;67815;51.990;5.688;2023-04-01T15:17:22;14.8;72.8
78516;SHT31;67815;51.990;5.688;2023-04-01T15:20:04;14.8;73.4
78516;SHT31;67815;51.990;5.688;2023-04-01T15:23:00;14.8;73.4
78516;SHT31;67815;51.990;5.688;2023-04-01T15:26:32;14.8;72.5
78516;SHT31;67815;51.990;5.688;2023-04-01T15:29:19;14.8;72.9
78516;SHT31;67815;51.990;5.688;2023-04-01T15:31:58;14.8;73.0
78516;SHT31;67815;51.990;5.688;2023-04-01T15:34:41;14.8;72.8
78516;SHT31;67815;51.990;5.688;2023-04-01T15:37:20;14.8;72.0
78516;SHT31;67815;51.990;5.688;2023-04-01T15:39:58;14.8;71.4
78516;SHT31;67815;51.990;5.688;2023-04-01T15:42:47;14.7;72.2
78516;SHT31;67815;51.990;5.688;2023-04-01T15:45:34;14.7;72.6
78516;SHT31;67815;51.990;5.688;2023-04-01T15:48:20;14.6;71.9
78516;SHT31;67815;51.990;5.688;2023-04-01T15:51:14;14.6;72.7
78516;SHT31;67815;51.990;5.688;2023-04-01T15:54:00;14.5;71.9
78516;SHT31;67815;51.990;5.688;2023-04-01T15:56:51;14.4;72.1
78516;SHT31;67815;51.990;5.688;2023-04-01T15:59:41;14.4;72.7
78516;SHT31;67815;51.990;5.688;2023-04-01T16:05:45;14.2;73.1
78516;SHT31;67815;51.990;5.688;2023-04-01T16:08:39;14.2;72.7
78516;SHT31;67815;51.990;5.688;2023-04-01T16:14:42;14.1;73.1
78516;SHT31;67815;51.990;5.688;2023-04-01T16:17:29;14.1;72.9
78516;SHT31;67815;51.990;5.688;2023-04-01T16:20:15;14.0;73.2
78516;SHT31;67815;51.990;5.688;2023-04-01T16:22:55;14.0;73.2
78516;SHT31;67815;51.990;5.688;2023-04-01T16:25:33;14.0;72.6
78516;SHT31;67815;51.990;5.688;2023-04-01T16:31:36;13.9;73.0
78516;SHT31;67815;51.990;5.688;2023-04-01T16:34:18;13.9;72.9
78516;SHT31;67815;51.990;5.688;2023-04-01T16:36:52;13.9;72.5
78516;SHT31;67815;51.990;5.688;2023-04-01T16:39:32;13.9;72.6
78516;SHT31;67815;51.990;5.688;2023-04-01T16:42:17;13.9;73.0
78516;SHT31;67815;51.990;5.688;2023-04-01T16:44:55;13.9;73.6
78516;SHT31;67815;51.990;5.688;2023-04-01T16:47:30;13.9;72.7
78516;SHT31;67815;51.990;5.688;2023-04-01T16:50:13;13.9;72.5
78516;SHT31;67815;51.990;5.688;2023-04-01T16:52:57;13.9;72.6
78516;SHT31;67815;51.990;5.688;2023-04-01T16:55:45;13.8;72.1
78516;SHT31;67815;51.990;5.688;2023-04-01T16:58:24;13.8;72.8
78516;SHT31;67815;51.990;5.688;2023-04-01T17:01:02;13.8;72.7
78516;SHT31;67815;51.990;5.688;2023-04-01T17:03:38;13.8;72.7
78516;SHT31;67815;51.990;5.688;2023-04-01T17:06:26;13.8;72.7
78516;SHT31;67815;51.990;5.688;2023-04-01T17:09:15;13.7;72.4
78516;SHT31;67815;51.990;5.688;2023-04-01T17:12:08;13.7;71.9
78516;SHT31;67815;51.990;5.688;2023-04-01T17:14:52;13.7;71.6
78516;SHT31;67815;51.990;5.688;2023-04-01T17:17:35;13.7;71.6
78516;SHT31;67815;51.990;5.688;2023-04-01T17:20:43;13.6;72.0
78516;SHT31;67815;51.990;5.688;2023-04-01T17:26:36;13.6;71.6
78516;SHT31;67815;51.990;5.688;2023-04-01T17:29:17;13.5;71.6
78516;SHT31;67815;51.990;5.688;2023-04-01T17:32:09;13.5;72.0
78516;SHT31;67815;51.990;5.688;2023-04-01T17:34:59;13.5;71.8
78516;SHT31;67815;51.990;5.688;2023-04-01T17:41:00;13.4;71.9
78516;SHT31;67815;51.990;5.688;2023-04-01T17:43:40;13.4;71.7
78516;SHT31;67815;51.990;5.688;2023-04-01T17:46:31;13.4;71.5
78516;SHT31;67815;51.990;5.688;2023-04-01T17:52:29;13.3;71.7
78516;SHT31;67815;51.990;5.688;2023-04-01T17:55:20;13.2;71.6
78516;SHT31;67815;51.990;5.688;2023-04-01T17:57:56;13.2;71.7
78516;SHT31;67815;51.990;5.688;2023-04-01T18:00:39;13.1;71.9
78516;SHT31;67815;51.990;5.688;2023-04-01T18:06:33;13.1;71.8
78516;SHT31;67815;51.990;5.688;2023-04-01T18:12:38;13.0;71.0
78516;SHT31;67815;51.990;5.688;2023-04-01T18:18:46;12.9;71.5
78516;SHT31;67815;51.990;5.688;2023-04-01T18:21:27;12.9;71.4
78516;SHT31;67815;51.990;5.688;2023-04-01T18:24:11;12.8;71.6
78516;SHT31;67815;51.990;5.688;2023-04-01T18:26:49;12.8;71.9
78516;SHT31;67815;51.990;5.688;2023-04-01T18:29:39;12.8;71.2
78516;SHT31;67815;51.990;5.688;2023-04-01T18:32:21;12.8;71.4
78516;SHT31;67815;51.990;5.688;2023-04-01T18:34:59;12.7;71.3
78516;SHT31;67815;51.990;5.688;2023-04-01T18:37:34;12.7;71.2
78516;SHT31;67815;51.990;5.688;2023-04-01T18:40:20;12.7;71.8
78516;SHT31;67815;51.990;5.688;2023-04-01T18:43:04;12.7;71.9
78516;SHT31;67815;51.990;5.688;2023-04-01T18:45:43;12.7;71.6
78516;SHT31;67815;51.990;5.688;2023-04-01T18:51:43;12.7;71.6
78516;SHT31;67815;51.990;5.688;2023-04-01T18:54:23;12.7;70.7
78516;SHT31;67815;51.990;5.688;2023-04-01T18:57:07;12.6;71.1
78516;SHT31;67815;51.990;5.688;2023-04-01T18:59:42;12.6;71.0
78516;SHT31;67815;51.990;5.688;2023-04-01T19:02:22;12.6;71.7
78516;SHT31;67815;51.990;5.688;2023-04-01T19:05:04;12.6;70.4
78516;SHT31;67815;51.990;5.688;2023-04-01T19:07:43;12.6;69.9
78516;SHT31;67815;51.990;5.688;2023-04-01T19:13:28;12.5;69.9
78516;SHT31;67815;51.990;5.688;2023-04-01T19:16:08;12.4;70.6
78516;SHT31;67815;51.990;5.688;2023-04-01T19:18:50;12.4;70.2
78516;SHT31;67815;51.990;5.688;2023-04-01T19:21:27;12.4;69.9
78516;SHT31;67815;51.990;5.688;2023-04-01T19:24:31;12.3;70.2
78516;SHT31;67815;51.990;5.688;2023-04-01T19:27:12;12.3;69.8
78516;SHT31;67815;51.990;5.688;2023-04-01T19:30:05;12.3;70.2
78516;SHT31;67815;51.990;5.688;2023-04-01T19:32:51;12.2;70.2
78516;SHT31;67815;51.990;5.688;2023-04-01T19:35:37;12.2;70.7
78516;SHT31;67815;51.990;5.688;2023-04-01T19:38:17;12.2;70.5
78516;SHT31;67815;51.990;5.688;2023-04-01T19:40:53;12.2;70.7
78516;SHT31;67815;51.990;5.688;2023-04-01T19:44:20;12.2;70.8
78516;SHT31;67815;51.990;5.688;2023-04-01T19:47:05;12.3;70.4
78516;SHT31;67815;51.990;5.688;2023-04-01T19:49:47;12.3;69.3
78516;SHT31;67815;51.990;5.688;2023-04-01T19:52:29;12.2;69.6
78516;SHT31;67815;51.990;5.688;2023-04-01T19:55:06;12.2;69.4
78516;SHT31;67815;51.990;5.688;2023-04-01T19:57:46;12.2;69.5
78516;SHT31;67815;51.990;5.688;2023-04-01T20:00:25;12.2;69.6
78516;SHT31;67815;51.990;5.688;2023-04-01T20:03:03;12.1;69.8
78516;SHT31;67815;51.990;5.688;2023-04-01T20:08:45;12.0;69.7
78516;SHT31;67815;51.990;5.688;2023-04-01T20:11:30;12.0;69.9
78516;SHT31;67815;51.990;5.688;2023-04-01T20:14:15;11.9;69.8
78516;SHT31;67815;51.990;5.688;2023-04-01T20:16:57;11.9;70.2
78516;SHT31;67815;51.990;5.688;2023-04-01T20:19:37;11.9;70.8
78516;SHT31;67815;51.990;5.688;2023-04-01T20:22:20;11.9;70.7
78516;SHT31;67815;51.990;5.688;2023-04-01T20:25:00;11.8;70.4